Time;durP1;ratioP1;P1;durP2;ratioP2;P2;SDS_P1;SDS_P2;PMS_P1;PMS_P2;Temp;Humidity;BMP_temperature;BMP_pressure;BME280_temperature;BME280_humidity;BME280_pressure;Samples;Min_cycle;Max_cycle;Signal;HPM_P1;HPM_P2
2023/08/31 00:01:53;;;;;;;7.37;4.63;;;;;;;;;;5034755;28;20595;-65
2023/08/31 00:04:19;;;;;;;6.20;4.20;;;;;;;;;;5034643;28;20173;-66
2023/08/31 00:06:46;;;;;;;10.97;5.20;;;;;;;;;;5034680;28;20258;-66
2023/08/31 00:09:12;;;;;;;11.50;4.70;;;;;;;;;;5034413;28;20206;-65
2023/08/31 00:11:38;;;;;;;9.80;4.60;;;;;;;;;;5016828;28;20195;-68
2023/08/31 00:14:05;;;;;;;8.77;4.70;;;;;;;;;;5016813;28;20206;-66
2023/08/31 00:16:31;;;;;;;9.97;4.70;;;;;;;;;;5034756;28;20179;-67
2023/08/31 00:18:57;;;;;;;9.73;4.93;;;;;;;;;;5034476;28;20258;-66
2023/08/31 00:21:23;;;;;;;11.07;4.67;;;;;;;;;;5034874;28;20187;-66
2023/08/31 00:23:50;;;;;;;8.23;4.80;;;;;;;;;;5034777;28;20171;-66
2023/08/31 00:26:16;;;;;;;9.67;5.43;;;;;;;;;;5034716;28;20179;-66
2023/08/31 00:28:44;;;;;;;10.03;5.00;;;;;;;;;;5033875;28;20203;-66
2023/08/31 00:31:10;;;;;;;9.43;5.20;;;;;;;;;;5033761;28;20197;-66
2023/08/31 00:33:36;;;;;;;12.80;5.93;;;;;;;;;;5015873;28;20217;-66
2023/08/31 00:36:03;;;;;;;7.90;5.80;;;;;;;;;;5015755;28;20567;-66
2023/08/31 00:38:29;;;;;;;12.83;5.97;;;;;;;;;;5033472;28;20179;-66
2023/08/31 00:40:55;;;;;;;10.53;6.00;;;;;;;;;;5033628;28;20261;-66
2023/08/31 00:43:21;;;;;;;8.57;5.67;;;;;;;;;;5033436;28;20187;-66
2023/08/31 00:45:49;;;;;;;12.97;5.63;;;;;;;;;;5015571;28;20219;-66
2023/08/31 00:48:16;;;;;;;8.87;5.70;;;;;;;;;;5033675;28;20179;-65
2023/08/31 00:50:42;;;;;;;9.90;6.37;;;;;;;;;;5015421;28;20178;-66
2023/08/31 00:53:09;;;;;;;10.07;6.53;;;;;;;;;;5033138;28;20175;-66
2023/08/31 00:55:35;;;;;;;8.50;6.20;;;;;;;;;;5015288;28;20179;-67
2023/08/31 00:58:01;;;;;;;9.33;6.20;;;;;;;;;;5015250;28;20244;-66
2023/08/31 01:00:34;;;;;;;13.13;5.93;;;;;;;;;;5032925;28;20193;-66
2023/08/31 01:03:12;;;;;;;10.93;6.20;;;;;;;;;;5015561;28;20183;-66
2023/08/31 01:06:02;;;;;;;10.30;6.13;;;;;;;;;;5033049;28;20179;-66
2023/08/31 01:08:28;;;;;;;10.90;7.30;;;;;;;;;;5032446;28;20458;-66
2023/08/31 01:11:13;;;;;;;8.70;6.43;;;;;;;;;;5015073;28;20195;-66
2023/08/31 01:13:42;;;;;;;12.43;6.90;;;;;;;;;;5033014;28;20699;-65
2023/08/31 01:16:08;;;;;;;9.03;6.30;;;;;;;;;;5032803;28;20178;-65
2023/08/31 01:18:37;;;;;;;9.63;6.30;;;;;;;;;;5032833;28;20183;-65
2023/08/31 01:21:09;;;;;;;8.70;6.23;;;;;;;;;;5033078;28;20282;-65
2023/08/31 01:23:44;;;;;;;9.63;7.80;;;;;;;;;;5014903;28;20461;-65
2023/08/31 01:26:11;;;;;;;11.43;6.67;;;;;;;;;;5035174;28;20174;-65
2023/08/31 01:28:37;;;;;;;11.40;6.23;;;;;;;;;;5033602;28;20203;-65
2023/08/31 01:31:06;;;;;;;8.13;5.90;;;;;;;;;;5033008;28;20280;-66
2023/08/31 01:33:32;;;;;;;6.50;5.83;;;;;;;;;;5032874;28;20559;-65
2023/08/31 01:36:00;;;;;;;10.27;6.40;;;;;;;;;;5033222;28;20171;-65
2023/08/31 01:38:29;;;;;;;6.87;6.07;;;;;;;;;;5032862;28;20175;-65
2023/08/31 01:40:56;;;;;;;7.97;6.30;;;;;;;;;;5036004;28;20203;-66
2023/08/31 01:43:23;;;;;;;6.70;5.67;;;;;;;;;;5018744;28;20569;-66
2023/08/31 01:45:49;;;;;;;8.83;6.23;;;;;;;;;;5036473;28;20269;-66
2023/08/31 01:48:15;;;;;;;11.30;6.30;;;;;;;;;;5018798;28;20217;-66
2023/08/31 01:50:41;;;;;;;10.93;6.80;;;;;;;;;;5036483;28;20171;-66
2023/08/31 01:53:08;;;;;;;10.57;6.20;;;;;;;;;;5036441;28;20229;-66
2023/08/31 01:55:34;;;;;;;12.43;6.83;;;;;;;;;;5018641;28;20187;-67
2023/08/31 01:58:00;;;;;;;9.50;7.00;;;;;;;;;;5018834;28;20175;-66
2023/08/31 02:00:28;;;;;;;8.17;6.40;;;;;;;;;;5036479;28;20183;-66
2023/08/31 02:02:54;;;;;;;11.90;6.87;;;;;;;;;;5036269;28;20301;-66
2023/08/31 02:05:20;;;;;;;9.97;6.63;;;;;;;;;;5018570;28;20225;-66
2023/08/31 02:07:45;;;;;;;12.23;7.37;;;;;;;;;;5036380;28;20175;-66
2023/08/31 02:10:11;;;;;;;8.13;6.87;;;;;;;;;;5036036;28;20203;-66
2023/08/31 02:12:37;;;;;;;14.27;7.73;;;;;;;;;;5036046;28;20202;-66
2023/08/31 02:15:07;;;;;;;12.47;7.67;;;;;;;;;;5036024;28;20179;-66
2023/08/31 02:17:34;;;;;;;12.93;7.50;;;;;;;;;;5035767;28;20246;-66
2023/08/31 02:20:01;;;;;;;9.43;7.20;;;;;;;;;;5018076;28;20210;-66
2023/08/31 02:22:27;;;;;;;9.97;7.97;;;;;;;;;;5035881;28;20195;-66
2023/08/31 02:24:53;;;;;;;12.97;8.37;;;;;;;;;;5035674;28;20179;-66
2023/08/31 02:27:19;;;;;;;8.67;7.67;;;;;;;;;;5018149;28;20676;-66
2023/08/31 02:29:45;;;;;;;14.43;8.20;;;;;;;;;;5017861;28;20207;-66
2023/08/31 02:32:11;;;;;;;11.93;7.90;;;;;;;;;;5035592;28;20209;-66
2023/08/31 02:34:37;;;;;;;12.30;8.53;;;;;;;;;;5035632;28;20175;-66
2023/08/31 02:37:03;;;;;;;10.73;7.83;;;;;;;;;;5017808;28;20171;-66
2023/08/31 02:39:29;;;;;;;13.83;8.00;;;;;;;;;;5017869;28;20191;-65
2023/08/31 02:41:55;;;;;;;14.47;8.30;;;;;;;;;;5035549;28;20282;-66
2023/08/31 02:44:21;;;;;;;10.27;8.27;;;;;;;;;;5017731;28;20273;-66
2023/08/31 02:46:47;;;;;;;8.20;7.37;;;;;;;;;;5017478;28;20190;-65
2023/08/31 02:49:12;;;;;;;10.10;8.00;;;;;;;;;;5035475;28;20242;-66
2023/08/31 02:51:39;;;;;;;9.17;8.17;;;;;;;;;;5034160;28;20576;-65
2023/08/31 02:54:05;;;;;;;10.60;8.50;;;;;;;;;;5017334;28;20186;-65
2023/08/31 02:56:31;;;;;;;14.50;8.57;;;;;;;;;;5017314;28;20195;-64
2023/08/31 02:58:57;;;;;;;12.63;8.80;;;;;;;;;;5034987;28;20236;-65
2023/08/31 03:01:24;;;;;;;9.77;8.50;;;;;;;;;;5034977;28;20214;-66
2023/08/31 03:03:50;;;;;;;14.83;9.27;;;;;;;;;;5035078;28;20175;-65
2023/08/31 03:06:16;;;;;;;12.23;9.37;;;;;;;;;;5035003;28;20710;-65
2023/08/31 03:08:42;;;;;;;13.47;9.33;;;;;;;;;;5034730;28;20259;-66
2023/08/31 03:11:08;;;;;;;11.97;9.47;;;;;;;;;;5016933;28;20579;-66
2023/08/31 03:13:34;;;;;;;11.70;9.53;;;;;;;;;;5017046;28;20178;-66
2023/08/31 03:16:01;;;;;;;14.30;9.23;;;;;;;;;;5035121;28;20646;-66
2023/08/31 03:18:27;;;;;;;13.50;9.17;;;;;;;;;;5017158;28;20270;-66
2023/08/31 03:20:54;;;;;;;14.93;9.07;;;;;;;;;;5036269;28;20579;-66
2023/08/31 03:23:20;;;;;;;11.37;8.70;;;;;;;;;;5017182;28;20183;-66
2023/08/31 03:25:45;;;;;;;17.33;9.03;;;;;;;;;;5035736;28;20184;-67
2023/08/31 03:28:12;;;;;;;14.37;9.10;;;;;;;;;;5017640;28;20187;-67
2023/08/31 03:30:38;;;;;;;9.67;8.67;;;;;;;;;;5017134;28;20214;-68
2023/08/31 03:33:04;;;;;;;11.97;8.93;;;;;;;;;;5017176;28;20175;-67
2023/08/31 03:35:30;;;;;;;11.53;8.30;;;;;;;;;;5035276;28;20176;-68
2023/08/31 03:37:56;;;;;;;14.87;9.40;;;;;;;;;;5036499;28;20179;-65
2023/08/31 03:40:25;;;;;;;13.50;9.27;;;;;;;;;;5018463;28;20661;-67
2023/08/31 03:42:52;;;;;;;12.20;9.03;;;;;;;;;;5034756;28;20253;-68
2023/08/31 03:45:18;;;;;;;11.70;8.77;;;;;;;;;;5017224;28;20179;-66
2023/08/31 03:47:44;;;;;;;11.23;8.77;;;;;;;;;;5034401;28;20702;-67
2023/08/31 03:50:10;;;;;;;9.07;8.17;;;;;;;;;;5016409;28;20590;-66
2023/08/31 03:52:36;;;;;;;11.87;8.20;;;;;;;;;;5034167;28;20262;-66
2023/08/31 03:55:02;;;;;;;14.93;9.33;;;;;;;;;;5016389;28;20278;-66
2023/08/31 03:57:28;;;;;;;11.50;9.17;;;;;;;;;;5034769;28;20183;-67
2023/08/31 03:59:54;;;;;;;12.03;8.63;;;;;;;;;;5017799;28;20215;-66
2023/08/31 04:02:20;;;;;;;15.83;10.17;;;;;;;;;;5034555;28;20688;-67
2023/08/31 04:04:46;;;;;;;15.20;10.23;;;;;;;;;;5034747;28;20183;-68
2023/08/31 04:07:12;;;;;;;14.50;10.37;;;;;;;;;;5035002;28;20187;-68
2023/08/31 04:09:38;;;;;;;15.43;9.67;;;;;;;;;;5034130;28;20738;-67
2023/08/31 04:12:04;;;;;;;18.63;10.10;;;;;;;;;;5033767;28;20199;-67
2023/08/31 04:14:30;;;;;;;12.83;9.87;;;;;;;;;;5016337;28;20175;-67
2023/08/31 04:16:56;;;;;;;15.33;10.43;;;;;;;;;;5016236;28;20171;-67
2023/08/31 04:19:22;;;;;;;15.90;10.87;;;;;;;;;;5034506;28;20249;-68
2023/08/31 04:21:48;;;;;;;14.37;10.30;;;;;;;;;;5033590;28;20226;-67
2023/08/31 04:24:14;;;;;;;18.43;10.10;;;;;;;;;;5020208;28;20539;-70
2023/08/31 04:26:40;;;;;;;16.03;10.43;;;;;;;;;;5016708;28;20187;-68
2023/08/31 04:29:06;;;;;;;16.53;10.87;;;;;;;;;;5033937;28;20619;-67
2023/08/31 04:31:33;;;;;;;17.10;10.43;;;;;;;;;;5033555;28;20585;-67
2023/08/31 04:33:58;;;;;;;19.67;11.60;;;;;;;;;;5016201;28;20179;-67
2023/08/31 04:36:28;;;;;;;15.93;10.37;;;;;;;;;;5034240;28;20175;-68
2023/08/31 04:38:54;;;;;;;15.80;10.97;;;;;;;;;;5033761;28;20233;-66
2023/08/31 04:41:20;;;;;;;14.67;10.53;;;;;;;;;;5034094;28;20586;-66
2023/08/31 04:43:49;;;;;;;15.47;9.70;;;;;;;;;;5033923;28;20245;-67
2023/08/31 04:46:15;;;;;;;12.97;9.60;;;;;;;;;;5033801;28;20272;-67
2023/08/31 04:48:41;;;;;;;12.27;9.20;;;;;;;;;;5033508;28;20665;-66
2023/08/31 04:51:07;;;;;;;12.60;9.87;;;;;;;;;;5015461;28;20206;-66
2023/08/31 04:53:33;;;;;;;11.87;8.83;;;;;;;;;;5033466;28;20637;-66
2023/08/31 04:55:59;;;;;;;13.17;9.30;;;;;;;;;;5015801;28;20179;-68
2023/08/31 04:58:25;;;;;;;11.13;9.63;;;;;;;;;;5033332;28;20175;-67
2023/08/31 05:00:52;;;;;;;12.77;9.00;;;;;;;;;;5015597;28;20226;-67
2023/08/31 05:03:18;;;;;;;12.70;9.40;;;;;;;;;;5033879;28;20175;-67
2023/08/31 05:05:44;;;;;;;13.10;9.67;;;;;;;;;;5034602;28;20184;-68
2023/08/31 05:08:10;;;;;;;11.07;9.70;;;;;;;;;;5034456;28;20171;-68
2023/08/31 05:10:36;;;;;;;12.43;9.97;;;;;;;;;;5016206;28;20233;-67
2023/08/31 05:13:04;;;;;;;29.73;13.37;;;;;;;;;;5033801;28;20183;-67
2023/08/31 05:15:30;;;;;;;37.57;16.83;;;;;;;;;;5033023;28;20206;-67
2023/08/31 05:17:56;;;;;;;26.27;14.77;;;;;;;;;;5016222;28;20236;-66
2023/08/31 05:20:23;;;;;;;24.87;13.03;;;;;;;;;;5016389;28;20291;-67
2023/08/31 05:22:49;;;;;;;19.63;12.00;;;;;;;;;;5034998;28;20669;-66
2023/08/31 05:25:15;;;;;;;19.10;11.23;;;;;;;;;;5019379;28;20205;-67
2023/08/31 05:27:41;;;;;;;15.67;11.77;;;;;;;;;;5023113;28;20226;-67
2023/08/31 05:30:07;;;;;;;19.63;13.77;;;;;;;;;;5023064;28;20565;-67
2023/08/31 05:32:33;;;;;;;21.97;14.17;;;;;;;;;;5022739;28;20306;-67
2023/08/31 05:34:59;;;;;;;18.27;12.80;;;;;;;;;;5041361;28;20551;-66
2023/08/31 05:37:25;;;;;;;24.77;19.97;;;;;;;;;;5041051;28;20198;-66
2023/08/31 05:39:52;;;;;;;18.13;14.27;;;;;;;;;;5022698;28;20645;-66
2023/08/31 05:42:18;;;;;;;19.77;13.70;;;;;;;;;;5022737;28;20629;-68
2023/08/31 05:44:44;;;;;;;17.13;14.93;;;;;;;;;;5022914;28;20205;-66
2023/08/31 05:47:10;;;;;;;20.50;13.40;;;;;;;;;;5023465;28;20183;-69
2023/08/31 05:49:36;;;;;;;15.30;12.27;;;;;;;;;;5041461;28;20207;-68
2023/08/31 05:52:03;;;;;;;16.27;10.83;;;;;;;;;;5016035;28;20214;-67
2023/08/31 05:54:28;;;;;;;11.77;10.57;;;;;;;;;;5016248;28;20217;-67
2023/08/31 05:56:54;;;;;;;13.47;11.03;;;;;;;;;;5033646;28;20187;-67
2023/08/31 05:59:21;;;;;;;14.90;9.77;;;;;;;;;;5015837;28;20278;-67
2023/08/31 06:01:47;;;;;;;15.87;10.83;;;;;;;;;;5034525;28;20207;-67
2023/08/31 06:04:13;;;;;;;14.97;11.17;;;;;;;;;;5036577;28;20270;-66
2023/08/31 06:06:39;;;;;;;12.47;9.83;;;;;;;;;;5036460;28;20230;-67
2023/08/31 06:09:06;;;;;;;12.43;9.43;;;;;;;;;;5036740;28;20212;-67
2023/08/31 06:11:32;;;;;;;11.80;8.90;;;;;;;;;;5036187;28;20206;-68
2023/08/31 06:13:58;;;;;;;11.17;8.77;;;;;;;;;;5017414;28;20183;-67
2023/08/31 06:16:24;;;;;;;15.57;8.73;;;;;;;;;;5033915;28;20206;-66
2023/08/31 06:18:51;;;;;;;10.33;8.07;;;;;;;;;;5033863;28;20215;-66
2023/08/31 06:21:17;;;;;;;9.43;6.93;;;;;;;;;;5033851;28;20202;-66
2023/08/31 06:23:43;;;;;;;9.73;6.77;;;;;;;;;;5034788;28;20184;-68
2023/08/31 06:26:09;;;;;;;11.33;6.40;;;;;;;;;;5036026;28;20183;-66
2023/08/31 06:28:35;;;;;;;7.73;6.93;;;;;;;;;;5037066;28;20238;-66
2023/08/31 06:31:01;;;;;;;8.00;6.73;;;;;;;;;;5019037;28;20199;-66
2023/08/31 06:33:27;;;;;;;8.23;7.43;;;;;;;;;;5036934;28;20182;-67
2023/08/31 06:35:53;;;;;;;8.23;6.20;;;;;;;;;;5036532;28;20179;-67
2023/08/31 06:38:19;;;;;;;12.17;7.20;;;;;;;;;;5039092;28;20176;-66
2023/08/31 06:40:47;;;;;;;8.30;6.90;;;;;;;;;;5038251;28;20277;-66
2023/08/31 06:43:13;;;;;;;8.27;6.87;;;;;;;;;;5036548;28;20555;-68
2023/08/31 06:45:40;;;;;;;6.80;6.10;;;;;;;;;;5036034;28;20175;-66
2023/08/31 06:48:06;;;;;;;9.17;6.80;;;;;;;;;;5037579;28;20179;-66
2023/08/31 06:50:35;;;;;;;7.17;6.47;;;;;;;;;;5041055;28;20203;-68
2023/08/31 06:53:01;;;;;;;8.27;6.03;;;;;;;;;;5036425;28;20203;-66
2023/08/31 06:55:27;;;;;;;6.97;6.10;;;;;;;;;;5036113;28;20580;-67
2023/08/31 06:57:53;;;;;;;9.40;6.10;;;;;;;;;;5036130;28;20179;-66
2023/08/31 07:00:20;;;;;;;6.33;5.70;;;;;;;;;;5018130;28;20187;-67
2023/08/31 07:02:46;;;;;;;10.57;5.80;;;;;;;;;;5035685;28;20574;-67
2023/08/31 07:05:11;;;;;;;7.33;5.47;;;;;;;;;;5035723;28;20659;-68
2023/08/31 07:07:37;;;;;;;7.87;5.53;;;;;;;;;;5018856;28;20182;-68
2023/08/31 07:10:05;;;;;;;6.27;5.07;;;;;;;;;;5018540;28;20207;-67
2023/08/31 07:12:31;;;;;;;9.27;5.07;;;;;;;;;;5017873;28;20669;-67
2023/08/31 07:14:57;;;;;;;9.37;5.50;;;;;;;;;;5017665;28;20207;-67
2023/08/31 07:17:23;;;;;;;6.57;5.10;;;;;;;;;;5074725;22;20234;-69
2023/08/31 07:19:49;;;;;;;5.87;4.93;;;;;;;;;;5054943;28;20178;-69
2023/08/31 07:22:15;;;;;;;8.20;5.07;;;;;;;;;;5054975;28;20190;-69
2023/08/31 07:24:41;;;;;;;7.37;4.87;;;;;;;;;;5055109;28;20559;-69
2023/08/31 07:27:07;;;;;;;5.83;4.60;;;;;;;;;;5054990;28;20202;-70
2023/08/31 07:29:33;;;;;;;7.97;4.93;;;;;;;;;;5056406;28;20206;-69
2023/08/31 07:31:59;;;;;;;4.60;4.10;;;;;;;;;;5055167;28;20216;-69
2023/08/31 07:34:26;;;;;;;9.40;4.93;;;;;;;;;;5054765;28;20208;-69
2023/08/31 07:36:52;;;;;;;8.07;5.50;;;;;;;;;;5036315;28;20282;-69
2023/08/31 07:39:18;;;;;;;7.67;4.43;;;;;;;;;;5054758;28;20214;-69
2023/08/31 07:41:44;;;;;;;6.73;4.07;;;;;;;;;;5055342;28;20594;-70
2023/08/31 07:44:10;;;;;;;6.10;4.30;;;;;;;;;;5054375;28;20213;-69
2023/08/31 07:46:36;;;;;;;5.07;4.60;;;;;;;;;;5054535;28;20240;-70
2023/08/31 07:49:03;;;;;;;5.17;4.67;;;;;;;;;;5054628;28;20210;-69
2023/08/31 07:51:29;;;;;;;5.80;4.67;;;;;;;;;;5054410;28;20265;-69
2023/08/31 07:53:56;;;;;;;5.73;4.40;;;;;;;;;;5054445;28;20213;-69
2023/08/31 07:56:26;;;;;;;5.37;4.70;;;;;;;;;;5054072;28;20277;-69
2023/08/31 07:58:52;;;;;;;4.57;4.13;;;;;;;;;;5036325;28;20678;-69
2023/08/31 08:01:17;;;;;;;7.10;3.97;;;;;;;;;;5054766;28;20175;-70
2023/08/31 08:03:43;;;;;;;5.77;4.03;;;;;;;;;;5036336;28;20182;-69
2023/08/31 08:06:09;;;;;;;4.47;3.70;;;;;;;;;;5053951;28;20206;-68
2023/08/31 08:08:35;;;;;;;6.40;4.20;;;;;;;;;;5054201;28;20635;-69
2023/08/31 08:11:02;;;;;;;8.80;4.57;;;;;;;;;;5054777;28;20626;-69
2023/08/31 08:13:28;;;;;;;6.03;4.47;;;;;;;;;;5054070;28;20183;-69
2023/08/31 08:15:54;;;;;;;6.30;4.93;;;;;;;;;;5035857;28;20182;-69
2023/08/31 08:18:20;;;;;;;7.17;4.90;;;;;;;;;;5054461;28;20195;-68
2023/08/31 08:20:51;;;;;;;4.90;4.40;;;;;;;;;;5037510;28;20224;-69
2023/08/31 08:23:16;;;;;;;6.57;5.07;;;;;;;;;;5053981;28;20174;-69
2023/08/31 08:25:43;;;;;;;7.00;4.53;;;;;;;;;;5053615;28;20236;-69
2023/08/31 08:28:09;;;;;;;5.33;4.37;;;;;;;;;;5053697;28;20219;-68
2023/08/31 08:30:35;;;;;;;5.80;4.30;;;;;;;;;;5035661;28;20266;-69
2023/08/31 08:33:01;;;;;;;5.23;4.37;;;;;;;;;;5053516;28;20174;-69
2023/08/31 08:35:27;;;;;;;5.27;4.60;;;;;;;;;;5035521;28;20224;-69
2023/08/31 08:37:53;;;;;;;6.53;5.10;;;;;;;;;;5053555;28;20612;-69
2023/08/31 08:40:19;;;;;;;6.60;4.40;;;;;;;;;;5053782;28;20186;-70
2023/08/31 08:42:47;;;;;;;4.77;4.37;;;;;;;;;;5053638;28;20553;-70
2023/08/31 08:45:16;;;;;;;6.47;4.63;;;;;;;;;;5035478;28;20174;-69
2023/08/31 08:47:46;;;;;;;6.00;4.30;;;;;;;;;;5053292;28;20683;-68
2023/08/31 08:50:13;;;;;;;5.80;4.50;;;;;;;;;;5034530;28;20210;-69
2023/08/31 08:52:42;;;;;;;8.97;4.33;;;;;;;;;;5035840;28;20228;-69
2023/08/31 08:55:09;;;;;;;6.83;4.40;;;;;;;;;;5053258;28;20171;-70
2023/08/31 08:57:35;;;;;;;8.23;4.43;;;;;;;;;;5053434;28;20561;-69
2023/08/31 09:00:02;;;;;;;8.57;4.03;;;;;;;;;;5053416;28;20199;-68
2023/08/31 09:02:29;;;;;;;5.77;4.13;;;;;;;;;;5035786;28;20573;-69
2023/08/31 09:04:55;;;;;;;9.83;4.60;;;;;;;;;;5035738;28;20189;-68
2023/08/31 09:07:21;;;;;;;5.83;4.23;;;;;;;;;;5053626;28;20202;-70
2023/08/31 09:09:54;;;;;;;6.73;3.73;;;;;;;;;;5035345;28;20213;-69
2023/08/31 09:12:24;;;;;;;6.13;4.20;;;;;;;;;;5053211;28;20387;-69
2023/08/31 09:14:59;;;;;;;5.07;3.57;;;;;;;;;;5053191;28;20257;-69
2023/08/31 09:17:26;;;;;;;4.67;3.73;;;;;;;;;;5035231;28;20577;-69
2023/08/31 09:20:03;;;;;;;5.23;3.90;;;;;;;;;;5053221;28;20185;-69
2023/08/31 09:22:29;;;;;;;3.63;3.33;;;;;;;;;;5053643;28;20189;-68
2023/08/31 09:24:55;;;;;;;4.13;3.60;;;;;;;;;;5053537;28;20174;-68
2023/08/31 09:27:22;;;;;;;5.17;3.80;;;;;;;;;;5053349;28;20205;-69
2023/08/31 09:29:49;;;;;;;5.23;3.60;;;;;;;;;;5053644;28;20206;-69
2023/08/31 09:32:18;;;;;;;9.23;7.10;;;;;;;;;;5053627;28;20624;-68
2023/08/31 09:34:44;;;;;;;9.43;7.13;;;;;;;;;;5035600;28;20182;-70
2023/08/31 09:37:10;;;;;;;13.00;6.63;;;;;;;;;;5053223;28;20275;-69
2023/08/31 09:39:37;;;;;;;27.63;16.33;;;;;;;;;;5053819;28;20637;-68
2023/08/31 09:42:04;;;;;;;17.73;10.83;;;;;;;;;;5034965;28;20240;-69
2023/08/31 09:44:30;;;;;;;14.73;8.87;;;;;;;;;;5034932;28;20191;-69
2023/08/31 09:46:56;;;;;;;16.23;12.10;;;;;;;;;;5052685;28;20232;-69
2023/08/31 09:49:22;;;;;;;16.63;10.87;;;;;;;;;;5052502;28;20691;-69
2023/08/31 09:51:52;;;;;;;8.37;4.70;;;;;;;;;;5034886;28;20182;-69
2023/08/31 09:54:18;;;;;;;12.77;6.43;;;;;;;;;;5053045;28;20261;-69
2023/08/31 09:56:45;;;;;;;5.47;3.57;;;;;;;;;;5052655;28;20240;-69
2023/08/31 09:59:12;;;;;;;10.23;4.47;;;;;;;;;;5052734;28;20175;-69
2023/08/31 10:01:38;;;;;;;5.00;2.77;;;;;;;;;;5055276;28;20179;-69
2023/08/31 10:04:05;;;;;;;8.40;2.90;;;;;;;;;;5057482;28;20182;-69
2023/08/31 10:06:32;;;;;;;6.00;3.00;;;;;;;;;;5038682;28;20669;-69
2023/08/31 10:08:59;;;;;;;6.20;2.87;;;;;;;;;;5038349;28;20203;-69
2023/08/31 10:11:28;;;;;;;5.47;2.60;;;;;;;;;;5056569;28;20209;-69
2023/08/31 10:13:55;;;;;;;7.93;2.90;;;;;;;;;;5056307;28;20174;-69
2023/08/31 10:16:22;;;;;;;7.83;2.97;;;;;;;;;;5055854;28;20218;-68
2023/08/31 10:18:49;;;;;;;6.47;3.13;;;;;;;;;;5038331;28;20273;-69
2023/08/31 10:21:18;;;;;;;5.90;2.97;;;;;;;;;;5039497;28;20183;-68
2023/08/31 10:23:45;;;;;;;5.70;2.97;;;;;;;;;;5038406;28;20178;-68
2023/08/31 10:26:11;;;;;;;4.97;2.77;;;;;;;;;;5056549;28;20194;-68
2023/08/31 10:28:42;;;;;;;6.77;2.90;;;;;;;;;;5056156;28;20170;-68
2023/08/31 10:31:20;;;;;;;5.70;3.20;;;;;;;;;;5056236;28;20208;-68
2023/08/31 10:33:47;;;;;;;5.50;2.47;;;;;;;;;;5038293;28;20173;-68
2023/08/31 10:36:16;;;;;;;5.13;2.67;;;;;;;;;;5055859;28;20210;-69
2023/08/31 10:38:45;;;;;;;4.70;2.57;;;;;;;;;;5037763;28;20178;-68
2023/08/31 10:41:11;;;;;;;6.13;2.33;;;;;;;;;;5037747;28;20216;-68
2023/08/31 10:43:44;;;;;;;3.67;2.40;;;;;;;;;;5055702;28;20268;-68
2023/08/31 10:46:39;;;;;;;7.80;2.57;;;;;;;;;;5037641;28;20667;-68
2023/08/31 10:49:11;;;;;;;7.23;2.70;;;;;;;;;;5053358;28;20218;-69
2023/08/31 10:51:38;;;;;;;8.00;2.87;;;;;;;;;;5055515;28;20189;-68
2023/08/31 10:54:05;;;;;;;6.27;2.70;;;;;;;;;;5055748;28;20613;-69
2023/08/31 10:56:31;;;;;;;5.87;2.57;;;;;;;;;;5059375;28;20199;-70
2023/08/31 10:58:58;;;;;;;4.07;2.20;;;;;;;;;;5044032;28;20182;-68
2023/08/31 11:01:43;;;;;;;3.87;2.60;;;;;;;;;;5055299;28;20179;-68
2023/08/31 11:04:10;;;;;;;6.00;2.50;;;;;;;;;;5055196;28;20264;-69
2023/08/31 11:06:36;;;;;;;3.47;2.30;;;;;;;;;;5055299;28;20199;-68
2023/08/31 11:09:03;;;;;;;7.47;2.90;;;;;;;;;;5055546;28;20213;-69
2023/08/31 11:11:37;;;;;;;5.23;2.70;;;;;;;;;;5055215;28;20199;-69
2023/08/31 11:14:03;;;;;;;6.97;2.93;;;;;;;;;;5055355;28;20563;-68
2023/08/31 11:16:31;;;;;;;4.83;2.67;;;;;;;;;;5055432;28;20679;-69
2023/08/31 11:18:57;;;;;;;4.37;2.83;;;;;;;;;;5055082;28;20183;-69
2023/08/31 11:21:23;;;;;;;4.63;2.80;;;;;;;;;;5055398;28;20198;-69
2023/08/31 11:23:49;;;;;;;3.53;2.50;;;;;;;;;;5055620;28;20181;-68
2023/08/31 11:26:15;;;;;;;3.47;2.70;;;;;;;;;;5056098;28;20660;-68
2023/08/31 11:28:44;;;;;;;5.93;2.80;;;;;;;;;;5055365;28;20217;-68
2023/08/31 11:31:10;;;;;;;6.20;2.50;;;;;;;;;;5055695;28;20174;-68
2023/08/31 11:33:37;;;;;;;4.30;2.80;;;;;;;;;;5055468;28;20178;-68
2023/08/31 11:36:03;;;;;;;7.27;2.47;;;;;;;;;;5037039;28;20289;-68
2023/08/31 11:38:29;;;;;;;7.73;3.10;;;;;;;;;;5036991;28;20210;-68
2023/08/31 11:40:59;;;;;;;5.27;2.47;;;;;;;;;;5056513;28;20542;-67
2023/08/31 11:43:25;;;;;;;5.60;2.90;;;;;;;;;;5057967;28;20209;-69
2023/08/31 11:45:52;;;;;;;4.80;2.93;;;;;;;;;;5056337;28;20550;-69
2023/08/31 11:48:18;;;;;;;6.43;2.80;;;;;;;;;;5037386;28;20182;-69
2023/08/31 11:50:44;;;;;;;5.53;2.90;;;;;;;;;;5038850;28;20214;-70
2023/08/31 11:53:10;;;;;;;4.43;2.70;;;;;;;;;;5055369;28;20178;-69
2023/08/31 11:55:36;;;;;;;5.37;2.70;;;;;;;;;;5054949;28;20228;-68
2023/08/31 11:58:03;;;;;;;6.03;2.80;;;;;;;;;;5054917;28;20613;-68
2023/08/31 12:00:29;;;;;;;4.30;2.60;;;;;;;;;;5054649;28;20692;-68
2023/08/31 12:02:58;;;;;;;5.03;2.60;;;;;;;;;;5054847;28;20206;-68
2023/08/31 12:05:24;;;;;;;7.30;3.83;;;;;;;;;;5054424;28;20183;-69
2023/08/31 12:07:52;;;;;;;12.03;3.30;;;;;;;;;;5053953;28;20257;-68
2023/08/31 12:10:18;;;;;;;5.43;2.50;;;;;;;;;;5054308;28;20292;-68
2023/08/31 12:12:44;;;;;;;3.83;2.50;;;;;;;;;;5053980;28;20202;-68
2023/08/31 12:15:11;;;;;;;6.30;2.67;;;;;;;;;;5054494;28;20710;-67
2023/08/31 12:17:40;;;;;;;3.73;2.73;;;;;;;;;;5035909;28;20711;-67
2023/08/31 12:20:07;;;;;;;6.37;2.87;;;;;;;;;;5054193;28;20185;-68
2023/08/31 12:22:35;;;;;;;5.30;2.77;;;;;;;;;;5036237;28;20186;-67
2023/08/31 12:25:00;;;;;;;7.07;2.60;;;;;;;;;;5053596;28;20194;-68
2023/08/31 12:27:27;;;;;;;5.30;3.03;;;;;;;;;;5053821;28;20332;-68
2023/08/31 12:29:54;;;;;;;8.27;2.70;;;;;;;;;;5035817;28;20202;-68
2023/08/31 12:32:20;;;;;;;6.30;2.63;;;;;;;;;;5035928;28;20189;-68
2023/08/31 12:34:46;;;;;;;5.37;2.63;;;;;;;;;;5053584;28;20571;-67
2023/08/31 12:37:12;;;;;;;7.10;2.47;;;;;;;;;;5053458;28;20256;-68
2023/08/31 12:39:37;;;;;;;6.83;2.90;;;;;;;;;;5035816;28;20175;-69
2023/08/31 12:42:04;;;;;;;6.60;2.60;;;;;;;;;;5053667;28;20270;-68
2023/08/31 12:44:31;;;;;;;5.40;2.43;;;;;;;;;;5036453;28;20232;-68
2023/08/31 12:46:56;;;;;;;6.17;2.60;;;;;;;;;;5053581;28;20195;-69
2023/08/31 12:49:22;;;;;;;3.67;2.77;;;;;;;;;;5053794;28;20699;-69
2023/08/31 12:51:50;;;;;;;4.30;2.60;;;;;;;;;;5035532;28;20179;-69
2023/08/31 12:54:16;;;;;;;4.43;2.33;;;;;;;;;;5035494;28;20178;-68
2023/08/31 12:56:43;;;;;;;3.53;2.10;;;;;;;;;;5053374;28;20277;-69
2023/08/31 12:59:09;;;;;;;6.10;2.23;;;;;;;;;;5035249;28;20182;-68
2023/08/31 13:01:35;;;;;;;5.70;2.63;;;;;;;;;;5053278;28;20181;-69
2023/08/31 13:04:02;;;;;;;4.17;2.80;;;;;;;;;;5053085;28;20178;-68
2023/08/31 13:06:28;;;;;;;4.13;2.30;;;;;;;;;;5035309;28;20210;-69
2023/08/31 13:08:54;;;;;;;7.07;2.53;;;;;;;;;;5035177;28;20212;-69
2023/08/31 13:11:23;;;;;;;4.93;2.40;;;;;;;;;;5052970;28;20652;-68
2023/08/31 13:13:50;;;;;;;5.70;3.00;;;;;;;;;;5035053;28;20189;-69
2023/08/31 13:16:16;;;;;;;5.23;2.90;;;;;;;;;;5052946;28;20206;-69
2023/08/31 13:18:42;;;;;;;7.57;2.40;;;;;;;;;;5052929;28;20174;-68
2023/08/31 13:21:08;;;;;;;9.00;2.70;;;;;;;;;;5052928;28;20205;-69
2023/08/31 13:23:34;;;;;;;5.63;3.10;;;;;;;;;;5052853;28;20174;-68
2023/08/31 13:26:00;;;;;;;4.40;2.50;;;;;;;;;;5052844;28;20198;-69
2023/08/31 13:28:26;;;;;;;4.60;2.73;;;;;;;;;;5034919;28;20189;-68
2023/08/31 13:31:00;;;;;;;5.63;3.30;;;;;;;;;;5052670;28;20221;-69
2023/08/31 13:33:28;;;;;;;4.57;3.03;;;;;;;;;;5052711;28;20174;-69
2023/08/31 13:35:54;;;;;;;4.43;2.70;;;;;;;;;;5036582;28;20182;-68
2023/08/31 13:38:20;;;;;;;3.93;2.63;;;;;;;;;;5039101;28;20205;-68
2023/08/31 13:40:46;;;;;;;6.37;2.87;;;;;;;;;;5039720;28;20561;-69
2023/08/31 13:43:12;;;;;;;7.70;2.90;;;;;;;;;;5056977;28;20175;-68
2023/08/31 13:45:38;;;;;;;5.73;2.20;;;;;;;;;;5056969;28;20178;-68
2023/08/31 13:48:04;;;;;;;7.03;2.80;;;;;;;;;;5056646;28;20179;-68
2023/08/31 13:50:30;;;;;;;6.03;2.80;;;;;;;;;;5056439;28;20578;-69
2023/08/31 13:52:57;;;;;;;4.67;2.70;;;;;;;;;;5056569;28;20640;-68
2023/08/31 13:55:23;;;;;;;3.33;2.20;;;;;;;;;;5038736;28;20184;-68
2023/08/31 13:57:49;;;;;;;4.17;2.13;;;;;;;;;;5041463;28;20194;-68
2023/08/31 14:00:15;;;;;;;6.23;2.73;;;;;;;;;;5058261;28;20237;-69
2023/08/31 14:02:43;;;;;;;5.97;2.63;;;;;;;;;;5056738;28;20224;-70
2023/08/31 14:05:10;;;;;;;5.07;3.00;;;;;;;;;;5071897;22;20158;-65
2023/08/31 14:07:36;;;;;;;5.33;3.37;;;;;;;;;;5040222;28;20187;-63
2023/08/31 14:10:06;;;;;;;11.33;3.67;;;;;;;;;;5038529;28;20210;-63
2023/08/31 14:12:32;;;;;;;5.90;4.10;;;;;;;;;;5038330;28;20269;-63
2023/08/31 14:14:58;;;;;;;8.87;4.30;;;;;;;;;;5039051;28;20301;-63
2023/08/31 14:17:24;;;;;;;8.50;5.17;;;;;;;;;;5037104;28;20168;-64
2023/08/31 14:19:50;;;;;;;7.43;5.23;;;;;;;;;;5019266;28;20186;-63
2023/08/31 14:22:16;;;;;;;9.60;5.57;;;;;;;;;;5036947;28;20198;-63
2023/08/31 14:24:42;;;;;;;8.53;6.50;;;;;;;;;;5037156;28;20594;-63
2023/08/31 14:27:08;;;;;;;12.17;6.37;;;;;;;;;;5018941;28;20261;-63
2023/08/31 14:29:35;;;;;;;6.57;5.80;;;;;;;;;;5036821;28;20211;-63
2023/08/31 14:32:01;;;;;;;7.00;6.30;;;;;;;;;;5018488;28;20579;-63
2023/08/31 14:34:27;;;;;;;7.27;5.80;;;;;;;;;;5018062;28;20207;-63